sensor_id;sensor_type;location;lat;lon;timestamp;pressure;altitude;pressure_sealevel;temperature;humidity
49459;BME280;35354;51.296;16.924;2023-04-16T00:01:46;99304.53;;;9.07;98.27
49459;BME280;35354;51.296;16.924;2023-04-16T00:04:12;99321.09;;;9.05;98.29
49459;BME280;35354;51.296;16.924;2023-04-16T00:06:37;99326.50;;;9.00;98.33
49459;BME280;35354;51.296;16.924;2023-04-16T00:09:02;99319.13;;;8.91;98.45
49459;BME280;35354;51.296;16.924;2023-04-16T00:11:28;99302.47;;;8.76;98.03
49459;BME280;35354;51.296;16.924;2023-04-16T00:13:53;99307.94;;;8.70;98.63
49459;BME280;35354;51.296;16.924;2023-04-16T00:16:19;99336.16;;;8.78;98.92
49459;BME280;35354;51.296;16.924;2023-04-16T00:18:44;99332.56;;;8.61;99.30
49459;BME280;35354;51.296;16.924;2023-04-16T00:21:10;99329.16;;;8.59;99.77
49459;BME280;35354;51.296;16.924;2023-04-16T00:23:35;99311.41;;;8.50;99.99
49459;BME280;35354;51.296;16.924;2023-04-16T00:26:00;99326.53;;;8.61;99.70
49459;BME280;35354;51.296;16.924;2023-04-16T00:28:26;99315.75;;;8.49;99.08
49459;BME280;35354;51.296;16.924;2023-04-16T00:30:52;99321.22;;;8.43;98.47
49459;BME280;35354;51.296;16.924;2023-04-16T00:33:17;99311.13;;;8.36;98.52
49459;BME280;35354;51.296;16.924;2023-04-16T00:35:46;99336.53;;;8.49;98.22
49459;BME280;35354;51.296;16.924;2023-04-16T00:38:12;99328.19;;;8.43;97.74
49459;BME280;35354;51.296;16.924;2023-04-16T00:40:38;99334.53;;;8.34;98.47
49459;BME280;35354;51.296;16.924;2023-04-16T00:43:03;99310.03;;;8.21;98.39
49459;BME280;35354;51.296;16.924;2023-04-16T00:45:29;99300.97;;;8.11;98.25
49459;BME280;35354;51.296;16.924;2023-04-16T00:47:55;99290.13;;;8.01;98.39
49459;BME280;35354;51.296;16.924;2023-04-16T00:50:20;99308.94;;;8.06;99.34
49459;BME280;35354;51.296;16.924;2023-04-16T00:52:47;99304.31;;;7.92;99.67
49459;BME280;35354;51.296;16.924;2023-04-16T00:55:12;99320.38;;;8.00;100.00
49459;BME280;35354;51.296;16.924;2023-04-16T00:57:39;99338.38;;;8.05;99.88
49459;BME280;35354;51.296;16.924;2023-04-16T01:00:05;99316.19;;;7.98;99.77
49459;BME280;35354;51.296;16.924;2023-04-16T01:02:32;99328.78;;;8.07;99.99
49459;BME280;35354;51.296;16.924;2023-04-16T01:04:59;99303.66;;;7.87;99.53
49459;BME280;35354;51.296;16.924;2023-04-16T01:07:24;99347.56;;;8.12;99.72
49459;BME280;35354;51.296;16.924;2023-04-16T01:09:49;99346.09;;;8.07;100.00
49459;BME280;35354;51.296;16.924;2023-04-16T01:12:15;99318.13;;;7.93;100.00
49459;BME280;35354;51.296;16.924;2023-04-16T01:14:40;99342.66;;;8.06;100.00
49459;BME280;35354;51.296;16.924;2023-04-16T01:17:05;99317.22;;;7.94;100.00
49459;BME280;35354;51.296;16.924;2023-04-16T01:19:31;99319.22;;;7.87;100.00
49459;BME280;35354;51.296;16.924;2023-04-16T01:21:57;99335.06;;;8.02;99.88
49459;BME280;35354;51.296;16.924;2023-04-16T01:24:22;99349.63;;;8.04;99.28
49459;BME280;35354;51.296;16.924;2023-04-16T01:26:48;99345.38;;;8.03;99.23
49459;BME280;35354;51.296;16.924;2023-04-16T01:29:13;99343.69;;;8.02;99.08
49459;BME280;35354;51.296;16.924;2023-04-16T01:31:39;99335.81;;;8.04;99.00
49459;BME280;35354;51.296;16.924;2023-04-16T01:34:04;99313.13;;;7.88;99.06
49459;BME280;35354;51.296;16.924;2023-04-16T01:36:30;99336.81;;;8.01;99.04
49459;BME280;35354;51.296;16.924;2023-04-16T01:38:55;99328.75;;;7.87;99.56
49459;BME280;35354;51.296;16.924;2023-04-16T01:41:20;99335.28;;;7.95;99.22
49459;BME280;35354;51.296;16.924;2023-04-16T01:43:46;99319.34;;;7.84;99.26
49459;BME280;35354;51.296;16.924;2023-04-16T01:46:20;99321.94;;;7.84;99.15
49459;BME280;35354;51.296;16.924;2023-04-16T01:48:47;99334.00;;;7.85;99.76
49459;BME280;35354;51.296;16.924;2023-04-16T01:51:13;99328.19;;;7.79;99.97
49459;BME280;35354;51.296;16.924;2023-04-16T01:53:38;99357.03;;;7.93;99.81
49459;BME280;35354;51.296;16.924;2023-04-16T01:56:04;99338.56;;;7.79;99.39
49459;BME280;35354;51.296;16.924;2023-04-16T01:58:31;99353.19;;;7.81;99.91
49459;BME280;35354;51.296;16.924;2023-04-16T02:00:56;99343.03;;;7.75;100.00
49459;BME280;35354;51.296;16.924;2023-04-16T02:03:22;99352.25;;;7.82;100.00
49459;BME280;35354;51.296;16.924;2023-04-16T02:05:49;99356.00;;;7.75;100.00
49459;BME280;35354;51.296;16.924;2023-04-16T02:08:15;99341.25;;;7.77;100.00
49459;BME280;35354;51.296;16.924;2023-04-16T02:10:40;99373.47;;;7.92;100.00
49459;BME280;35354;51.296;16.924;2023-04-16T02:13:05;99373.53;;;7.90;100.00
49459;BME280;35354;51.296;16.924;2023-04-16T02:15:31;99378.84;;;7.87;100.00
49459;BME280;35354;51.296;16.924;2023-04-16T02:17:56;99359.19;;;7.82;100.00
49459;BME280;35354;51.296;16.924;2023-04-16T02:20:21;99377.97;;;7.88;100.00
49459;BME280;35354;51.296;16.924;2023-04-16T02:22:47;99371.06;;;7.87;100.00
49459;BME280;35354;51.296;16.924;2023-04-16T02:25:12;99376.44;;;7.83;100.00
49459;BME280;35354;51.296;16.924;2023-04-16T02:27:38;99367.47;;;7.69;100.00
49459;BME280;35354;51.296;16.924;2023-04-16T02:30:04;99304.44;;;7.25;100.00
49459;BME280;35354;51.296;16.924;2023-04-16T02:32:30;99368.84;;;7.34;100.00
49459;BME280;35354;51.296;16.924;2023-04-16T02:34:55;99375.03;;;7.30;100.00
49459;BME280;35354;51.296;16.924;2023-04-16T02:37:21;99350.16;;;7.03;100.00
49459;BME280;35354;51.296;16.924;2023-04-16T02:39:47;99362.53;;;7.18;100.00
49459;BME280;35354;51.296;16.924;2023-04-16T02:42:14;99358.91;;;6.98;100.00
49459;BME280;35354;51.296;16.924;2023-04-16T02:44:40;99363.94;;;7.03;100.00
49459;BME280;35354;51.296;16.924;2023-04-16T02:47:05;99365.19;;;7.16;100.00
49459;BME280;35354;51.296;16.924;2023-04-16T02:49:31;99365.84;;;7.21;100.00
49459;BME280;35354;51.296;16.924;2023-04-16T02:51:56;99386.78;;;7.39;100.00
49459;BME280;35354;51.296;16.924;2023-04-16T02:54:21;99385.78;;;7.43;100.00
49459;BME280;35354;51.296;16.924;2023-04-16T02:56:47;99369.38;;;7.42;100.00
49459;BME280;35354;51.296;16.924;2023-04-16T02:59:12;99373.59;;;7.45;100.00
49459;BME280;35354;51.296;16.924;2023-04-16T03:01:37;99379.28;;;7.55;100.00
49459;BME280;35354;51.296;16.924;2023-04-16T03:04:03;99364.78;;;7.49;100.00
49459;BME280;35354;51.296;16.924;2023-04-16T03:06:28;99393.63;;;7.63;100.00
49459;BME280;35354;51.296;16.924;2023-04-16T03:08:54;99375.91;;;7.53;100.00
49459;BME280;35354;51.296;16.924;2023-04-16T03:11:19;99400.84;;;7.55;100.00
49459;BME280;35354;51.296;16.924;2023-04-16T03:13:45;99376.34;;;7.40;100.00
49459;BME280;35354;51.296;16.924;2023-04-16T03:16:10;99379.78;;;7.41;100.00
49459;BME280;35354;51.296;16.924;2023-04-16T03:18:35;99384.78;;;7.45;100.00
49459;BME280;35354;51.296;16.924;2023-04-16T03:21:01;99388.38;;;7.43;100.00
49459;BME280;35354;51.296;16.924;2023-04-16T03:23:26;99392.56;;;7.45;100.00
49459;BME280;35354;51.296;16.924;2023-04-16T03:25:52;99390.72;;;7.49;100.00
49459;BME280;35354;51.296;16.924;2023-04-16T03:28:17;99400.91;;;7.54;100.00
49459;BME280;35354;51.296;16.924;2023-04-16T03:30:50;99405.06;;;7.58;100.00
49459;BME280;35354;51.296;16.924;2023-04-16T03:33:15;99397.97;;;7.63;100.00
49459;BME280;35354;51.296;16.924;2023-04-16T03:35:41;99406.13;;;7.75;100.00
49459;BME280;35354;51.296;16.924;2023-04-16T03:38:06;99427.94;;;7.92;100.00
49459;BME280;35354;51.296;16.924;2023-04-16T03:40:31;99405.78;;;7.83;100.00
49459;BME280;35354;51.296;16.924;2023-04-16T03:42:57;99412.88;;;8.02;100.00
49459;BME280;35354;51.296;16.924;2023-04-16T03:45:22;99425.41;;;8.12;100.00
49459;BME280;35354;51.296;16.924;2023-04-16T03:47:47;99425.16;;;8.18;100.00
49459;BME280;35354;51.296;16.924;2023-04-16T03:50:17;99421.72;;;8.18;100.00
49459;BME280;35354;51.296;16.924;2023-04-16T03:52:43;99414.91;;;8.15;100.00
49459;BME280;35354;51.296;16.924;2023-04-16T03:55:09;99417.31;;;8.20;100.00
49459;BME280;35354;51.296;16.924;2023-04-16T03:57:34;99436.66;;;8.33;100.00
49459;BME280;35354;51.296;16.924;2023-04-16T03:59:59;99412.72;;;8.27;100.00
49459;BME280;35354;51.296;16.924;2023-04-16T04:02:25;99412.53;;;8.31;100.00
49459;BME280;35354;51.296;16.924;2023-04-16T04:04:51;99424.53;;;8.34;100.00
49459;BME280;35354;51.296;16.924;2023-04-16T04:07:16;99431.25;;;8.39;100.00
49459;BME280;35354;51.296;16.924;2023-04-16T04:09:41;99451.56;;;8.50;100.00
49459;BME280;35354;51.296;16.924;2023-04-16T04:12:07;99453.41;;;8.48;100.00
49459;BME280;35354;51.296;16.924;2023-04-16T04:14:34;99440.72;;;8.40;100.00
49459;BME280;35354;51.296;16.924;2023-04-16T04:17:04;99459.31;;;8.52;100.00
49459;BME280;35354;51.296;16.924;2023-04-16T04:19:29;99454.34;;;8.45;100.00
49459;BME280;35354;51.296;16.924;2023-04-16T04:21:54;99449.44;;;8.39;100.00
49459;BME280;35354;51.296;16.924;2023-04-16T04:24:20;99459.34;;;8.50;100.00
49459;BME280;35354;51.296;16.924;2023-04-16T04:26:45;99467.88;;;8.54;100.00
49459;BME280;35354;51.296;16.924;2023-04-16T04:29:11;99467.97;;;8.50;100.00
49459;BME280;35354;51.296;16.924;2023-04-16T04:31:36;99441.91;;;8.32;100.00
49459;BME280;35354;51.296;16.924;2023-04-16T04:34:01;99462.09;;;8.47;100.00
49459;BME280;35354;51.296;16.924;2023-04-16T04:36:28;99456.41;;;8.37;100.00
49459;BME280;35354;51.296;16.924;2023-04-16T04:38:53;99407.38;;;8.09;100.00
49459;BME280;35354;51.296;16.924;2023-04-16T04:41:18;99450.19;;;8.41;100.00
49459;BME280;35354;51.296;16.924;2023-04-16T04:43:45;99467.31;;;8.45;100.00
49459;BME280;35354;51.296;16.924;2023-04-16T04:46:10;99453.88;;;8.36;100.00
49459;BME280;35354;51.296;16.924;2023-04-16T04:48:36;99477.28;;;8.56;100.00
49459;BME280;35354;51.296;16.924;2023-04-16T04:51:01;99478.06;;;8.58;100.00
49459;BME280;35354;51.296;16.924;2023-04-16T04:53:28;99483.97;;;8.62;100.00
49459;BME280;35354;51.296;16.924;2023-04-16T04:55:54;99475.47;;;8.58;100.00
49459;BME280;35354;51.296;16.924;2023-04-16T04:58:19;99488.06;;;8.67;100.00
49459;BME280;35354;51.296;16.924;2023-04-16T05:00:45;99471.06;;;8.60;100.00
49459;BME280;35354;51.296;16.924;2023-04-16T05:03:10;99486.75;;;8.57;100.00
49459;BME280;35354;51.296;16.924;2023-04-16T05:05:40;99496.84;;;8.65;100.00
49459;BME280;35354;51.296;16.924;2023-04-16T05:08:05;99493.94;;;8.72;100.00
49459;BME280;35354;51.296;16.924;2023-04-16T05:10:31;99494.56;;;8.78;100.00
49459;BME280;35354;51.296;16.924;2023-04-16T05:12:56;99505.03;;;8.96;100.00
49459;BME280;35354;51.296;16.924;2023-04-16T05:15:21;99486.38;;;8.66;100.00
49459;BME280;35354;51.296;16.924;2023-04-16T05:17:47;99470.03;;;8.42;100.00
49459;BME280;35354;51.296;16.924;2023-04-16T05:20:12;99525.50;;;8.18;100.00
49459;BME280;35354;51.296;16.924;2023-04-16T05:22:37;99530.41;;;8.02;100.00
49459;BME280;35354;51.296;16.924;2023-04-16T05:25:03;99524.97;;;7.63;100.00
49459;BME280;35354;51.296;16.924;2023-04-16T05:27:28;99508.06;;;7.53;100.00
49459;BME280;35354;51.296;16.924;2023-04-16T05:29:54;99516.09;;;7.45;100.00
49459;BME280;35354;51.296;16.924;2023-04-16T05:32:19;99540.75;;;7.57;100.00
49459;BME280;35354;51.296;16.924;2023-04-16T05:34:45;99521.59;;;7.61;100.00
49459;BME280;35354;51.296;16.924;2023-04-16T05:37:10;99544.41;;;7.74;100.00
49459;BME280;35354;51.296;16.924;2023-04-16T05:39:35;99495.88;;;7.31;100.00
49459;BME280;35354;51.296;16.924;2023-04-16T05:42:01;99540.63;;;7.83;100.00
49459;BME280;35354;51.296;16.924;2023-04-16T05:44:26;99544.09;;;7.84;100.00
49459;BME280;35354;51.296;16.924;2023-04-16T05:46:51;99549.66;;;7.96;100.00
49459;BME280;35354;51.296;16.924;2023-04-16T05:49:17;99523.47;;;8.03;100.00
49459;BME280;35354;51.296;16.924;2023-04-16T05:51:46;99528.38;;;8.32;100.00
49459;BME280;35354;51.296;16.924;2023-04-16T05:54:11;99521.69;;;8.70;99.93
49459;BME280;35354;51.296;16.924;2023-04-16T05:56:37;99504.88;;;9.59;97.53
49459;BME280;35354;51.296;16.924;2023-04-16T05:59:02;99506.31;;;10.94;93.11
49459;BME280;35354;51.296;16.924;2023-04-16T06:01:27;99505.41;;;11.94;88.67
49459;BME280;35354;51.296;16.924;2023-04-16T06:03:53;99532.63;;;12.68;84.43
49459;BME280;35354;51.296;16.924;2023-04-16T06:06:18;99527.59;;;13.25;82.95
49459;BME280;35354;51.296;16.924;2023-04-16T06:08:43;99512.31;;;14.17;79.21
49459;BME280;35354;51.296;16.924;2023-04-16T06:11:09;99517.88;;;15.32;74.86
49459;BME280;35354;51.296;16.924;2023-04-16T06:13:34;99546.50;;;15.99;71.93
49459;BME280;35354;51.296;16.924;2023-04-16T06:15:59;99544.53;;;14.73;71.60
49459;BME280;35354;51.296;16.924;2023-04-16T06:18:25;99568.13;;;14.32;73.34
49459;BME280;35354;51.296;16.924;2023-04-16T06:20:50;99561.81;;;14.08;73.70
49459;BME280;35354;51.296;16.924;2023-04-16T06:23:15;99550.81;;;13.60;75.49
49459;BME280;35354;51.296;16.924;2023-04-16T06:25:41;99578.97;;;12.80;77.57
49459;BME280;35354;51.296;16.924;2023-04-16T06:28:06;99588.72;;;12.15;79.84
49459;BME280;35354;51.296;16.924;2023-04-16T06:30:32;99587.88;;;11.81;81.44
49459;BME280;35354;51.296;16.924;2023-04-16T06:32:57;99522.72;;;10.96;82.98
49459;BME280;35354;51.296;16.924;2023-04-16T06:35:23;99577.53;;;10.58;85.54
49459;BME280;35354;51.296;16.924;2023-04-16T06:37:48;99589.41;;;10.64;86.68
49459;BME280;35354;51.296;16.924;2023-04-16T06:40:13;99580.91;;;10.22;87.34
49459;BME280;35354;51.296;16.924;2023-04-16T06:42:39;99583.00;;;9.77;88.99
49459;BME280;35354;51.296;16.924;2023-04-16T06:45:05;99596.44;;;9.86;90.01
49459;BME280;35354;51.296;16.924;2023-04-16T06:47:30;99569.84;;;9.40;91.26
49459;BME280;35354;51.296;16.924;2023-04-16T06:49:55;99603.31;;;9.28;92.19
49459;BME280;35354;51.296;16.924;2023-04-16T06:52:21;99596.31;;;8.87;93.79
49459;BME280;35354;51.296;16.924;2023-04-16T06:54:47;99597.06;;;8.69;95.74
49459;BME280;35354;51.296;16.924;2023-04-16T06:57:12;99584.84;;;8.71;96.42
49459;BME280;35354;51.296;16.924;2023-04-16T06:59:37;99584.53;;;8.79;96.45
49459;BME280;35354;51.296;16.924;2023-04-16T07:02:03;99560.06;;;8.84;95.70
49459;BME280;35354;51.296;16.924;2023-04-16T07:04:28;99584.19;;;9.08;95.49
49459;BME280;35354;51.296;16.924;2023-04-16T07:06:53;99586.41;;;9.17;94.85
49459;BME280;35354;51.296;16.924;2023-04-16T07:09:19;99593.16;;;9.21;94.67
49459;BME280;35354;51.296;16.924;2023-04-16T07:11:44;99611.97;;;9.28;95.04
49459;BME280;35354;51.296;16.924;2023-04-16T07:14:10;99626.84;;;9.45;95.01
49459;BME280;35354;51.296;16.924;2023-04-16T07:16:35;99577.47;;;9.24;94.81
49459;BME280;35354;51.296;16.924;2023-04-16T07:19:01;99597.34;;;9.46;94.56
49459;BME280;35354;51.296;16.924;2023-04-16T07:21:27;99588.28;;;9.55;94.75
49459;BME280;35354;51.296;16.924;2023-04-16T07:23:52;99624.06;;;9.89;94.25
49459;BME280;35354;51.296;16.924;2023-04-16T07:26:17;99604.31;;;9.85;93.57
49459;BME280;35354;51.296;16.924;2023-04-16T07:28:43;99635.56;;;10.04;93.40
49459;BME280;35354;51.296;16.924;2023-04-16T07:31:08;99631.91;;;10.08;93.12
49459;BME280;35354;51.296;16.924;2023-04-16T07:33:34;99618.72;;;10.31;92.75
49459;BME280;35354;51.296;16.924;2023-04-16T07:35:59;99623.19;;;10.65;91.80
49459;BME280;35354;51.296;16.924;2023-04-16T07:38:24;99645.03;;;10.99;90.11
49459;BME280;35354;51.296;16.924;2023-04-16T07:40:50;99631.19;;;11.16;88.66
49459;BME280;35354;51.296;16.924;2023-04-16T07:43:15;99653.50;;;11.91;87.71
49459;BME280;35354;51.296;16.924;2023-04-16T07:45:41;99637.56;;;15.35;78.73
49459;BME280;35354;51.296;16.924;2023-04-16T07:48:06;99636.16;;;18.87;67.36
49459;BME280;35354;51.296;16.924;2023-04-16T07:50:31;99644.13;;;21.61;58.24
49459;BME280;35354;51.296;16.924;2023-04-16T07:52:57;99630.88;;;23.88;53.87
49459;BME280;35354;51.296;16.924;2023-04-16T07:55:22;99646.69;;;25.42;48.88
49459;BME280;35354;51.296;16.924;2023-04-16T07:57:47;99630.84;;;26.76;47.65
49459;BME280;35354;51.296;16.924;2023-04-16T08:00:13;99643.69;;;27.87;44.27
49459;BME280;35354;51.296;16.924;2023-04-16T08:02:39;99639.19;;;28.83;43.22
49459;BME280;35354;51.296;16.924;2023-04-16T08:05:05;99655.53;;;29.74;40.67
49459;BME280;35354;51.296;16.924;2023-04-16T08:07:30;99634.13;;;28.95;40.83
49459;BME280;35354;51.296;16.924;2023-04-16T08:09:56;99649.84;;;29.41;40.45
49459;BME280;35354;51.296;16.924;2023-04-16T08:12:21;99637.75;;;29.73;39.75
49459;BME280;35354;51.296;16.924;2023-04-16T08:14:47;99642.34;;;29.08;40.16
49459;BME280;35354;51.296;16.924;2023-04-16T08:17:14;99637.16;;;27.52;42.48
49459;BME280;35354;51.296;16.924;2023-04-16T08:19:40;99633.16;;;25.76;43.59
49459;BME280;35354;51.296;16.924;2023-04-16T08:22:05;99663.16;;;23.32;48.12
49459;BME280;35354;51.296;16.924;2023-04-16T08:24:31;99647.31;;;20.07;54.16
49459;BME280;35354;51.296;16.924;2023-04-16T08:26:56;99646.28;;;18.15;58.89
49459;BME280;35354;51.296;16.924;2023-04-16T08:29:21;99643.66;;;17.11;62.32
49459;BME280;35354;51.296;16.924;2023-04-16T08:31:50;99644.72;;;16.22;66.11
49459;BME280;35354;51.296;16.924;2023-04-16T08:34:16;99603.50;;;15.73;67.58
49459;BME280;35354;51.296;16.924;2023-04-16T08:36:41;99675.34;;;16.10;68.23
49459;BME280;35354;51.296;16.924;2023-04-16T08:39:06;99655.91;;;15.75;67.98
49459;BME280;35354;51.296;16.924;2023-04-16T08:41:33;99631.69;;;15.44;68.76
49459;BME280;35354;51.296;16.924;2023-04-16T08:44:04;99644.38;;;15.50;70.16
49459;BME280;35354;51.296;16.924;2023-04-16T08:46:35;99646.97;;;15.77;69.53
49459;BME280;35354;51.296;16.924;2023-04-16T08:49:05;99649.59;;;16.03;68.44
49459;BME280;35354;51.296;16.924;2023-04-16T08:51:33;99656.84;;;15.86;65.50
49459;BME280;35354;51.296;16.924;2023-04-16T08:54:03;99668.00;;;16.65;65.91
49459;BME280;35354;51.296;16.924;2023-04-16T08:56:30;99653.69;;;16.69;63.47
49459;BME280;35354;51.296;16.924;2023-04-16T08:58:56;99653.06;;;16.16;64.43
49459;BME280;35354;51.296;16.924;2023-04-16T09:01:24;99653.13;;;15.63;64.80
49459;BME280;35354;51.296;16.924;2023-04-16T09:03:51;99679.19;;;15.27;67.66
49459;BME280;35354;51.296;16.924;2023-04-16T09:06:16;99686.94;;;14.74;70.77
49459;BME280;35354;51.296;16.924;2023-04-16T09:08:45;99692.88;;;14.63;71.51
49459;BME280;35354;51.296;16.924;2023-04-16T09:11:12;99670.38;;;14.45;72.40
49459;BME280;35354;51.296;16.924;2023-04-16T09:13:38;99703.06;;;14.68;72.13
49459;BME280;35354;51.296;16.924;2023-04-16T09:16:06;99695.16;;;14.82;71.49
49459;BME280;35354;51.296;16.924;2023-04-16T09:18:31;99686.94;;;14.74;71.86
49459;BME280;35354;51.296;16.924;2023-04-16T09:20:57;99677.88;;;14.65;72.24
49459;BME280;35354;51.296;16.924;2023-04-16T09:23:23;99699.22;;;14.73;70.44
49459;BME280;35354;51.296;16.924;2023-04-16T09:25:49;99709.56;;;14.89;70.88
49459;BME280;35354;51.296;16.924;2023-04-16T09:28:51;99709.06;;;14.56;70.69
49459;BME280;35354;51.296;16.924;2023-04-16T09:31:17;99701.31;;;14.54;71.27
49459;BME280;35354;51.296;16.924;2023-04-16T09:33:43;99666.84;;;14.32;72.12
49459;BME280;35354;51.296;16.924;2023-04-16T09:36:24;99704.75;;;14.69;69.60
49459;BME280;35354;51.296;16.924;2023-04-16T09:38:51;99695.56;;;14.47;70.47
49459;BME280;35354;51.296;16.924;2023-04-16T09:41:18;99681.91;;;14.57;70.39
49459;BME280;35354;51.296;16.924;2023-04-16T09:46:29;99690.28;;;14.90;68.33
49459;BME280;35354;51.296;16.924;2023-04-16T09:48:56;99704.63;;;15.12;68.65
49459;BME280;35354;51.296;16.924;2023-04-16T09:51:23;99713.06;;;15.17;67.62
49459;BME280;35354;51.296;16.924;2023-04-16T09:53:51;99704.25;;;15.18;68.23
49459;BME280;35354;51.296;16.924;2023-04-16T09:56:22;99703.72;;;15.13;68.44
49459;BME280;35354;51.296;16.924;2023-04-16T09:58:49;99714.28;;;15.11;69.30
49459;BME280;35354;51.296;16.924;2023-04-16T10:01:17;99688.72;;;14.88;70.17
49459;BME280;35354;51.296;16.924;2023-04-16T10:03:42;99691.94;;;14.91;70.57
49459;BME280;35354;51.296;16.924;2023-04-16T10:06:14;99702.59;;;14.76;70.35
49459;BME280;35354;51.296;16.924;2023-04-16T10:08:45;99714.56;;;14.80;70.65
49459;BME280;35354;51.296;16.924;2023-04-16T10:11:11;99707.19;;;14.72;70.58
49459;BME280;35354;51.296;16.924;2023-04-16T10:13:36;99720.63;;;14.94;70.12
49459;BME280;35354;51.296;16.924;2023-04-16T10:16:02;99705.59;;;14.69;67.75
49459;BME280;35354;51.296;16.924;2023-04-16T10:18:28;99711.78;;;14.68;68.95
49459;BME280;35354;51.296;16.924;2023-04-16T10:20:53;99709.81;;;14.58;69.99
49459;BME280;35354;51.296;16.924;2023-04-16T10:23:20;99713.00;;;14.63;70.69
49459;BME280;35354;51.296;16.924;2023-04-16T10:25:48;99728.72;;;14.63;69.76
49459;BME280;35354;51.296;16.924;2023-04-16T10:28:14;99728.03;;;14.73;70.64
49459;BME280;35354;51.296;16.924;2023-04-16T10:30:42;99733.09;;;14.48;69.99
49459;BME280;35354;51.296;16.924;2023-04-16T10:33:13;99714.38;;;14.26;66.30
49459;BME280;35354;51.296;16.924;2023-04-16T10:35:39;99700.81;;;14.47;65.29
49459;BME280;35354;51.296;16.924;2023-04-16T10:38:24;99718.75;;;14.96;66.04
49459;BME280;35354;51.296;16.924;2023-04-16T10:40:57;99696.81;;;14.97;63.49
49459;BME280;35354;51.296;16.924;2023-04-16T10:43:24;99705.03;;;15.33;64.35
49459;BME280;35354;51.296;16.924;2023-04-16T10:45:49;99698.03;;;15.46;63.89
49459;BME280;35354;51.296;16.924;2023-04-16T10:48:17;99721.53;;;15.75;64.32
49459;BME280;35354;51.296;16.924;2023-04-16T10:50:55;99712.88;;;15.60;61.95
49459;BME280;35354;51.296;16.924;2023-04-16T10:53:25;99713.34;;;15.79;61.53
49459;BME280;35354;51.296;16.924;2023-04-16T10:58:34;99704.25;;;15.58;62.04
49459;BME280;35354;51.296;16.924;2023-04-16T11:01:05;99712.81;;;15.74;62.46
49459;BME280;35354;51.296;16.924;2023-04-16T11:03:30;99712.25;;;15.56;62.53
49459;BME280;35354;51.296;16.924;2023-04-16T11:06:22;99703.72;;;15.53;62.07
49459;BME280;35354;51.296;16.924;2023-04-16T11:08:50;99706.09;;;15.70;61.91
49459;BME280;35354;51.296;16.924;2023-04-16T11:11:16;99729.75;;;15.43;62.07
49459;BME280;35354;51.296;16.924;2023-04-16T11:13:43;99706.59;;;15.08;62.55
49459;BME280;35354;51.296;16.924;2023-04-16T11:16:13;99726.72;;;15.22;62.73
49459;BME280;35354;51.296;16.924;2023-04-16T11:18:39;99701.72;;;15.16;63.08
49459;BME280;35354;51.296;16.924;2023-04-16T11:21:09;99711.38;;;15.16;63.09
49459;BME280;35354;51.296;16.924;2023-04-16T11:23:50;99700.97;;;15.14;63.33
49459;BME280;35354;51.296;16.924;2023-04-16T11:26:27;99700.75;;;15.05;63.77
49459;BME280;35354;51.296;16.924;2023-04-16T11:28:54;99701.47;;;14.80;64.11
49459;BME280;35354;51.296;16.924;2023-04-16T11:31:21;99718.69;;;15.11;65.09
49459;BME280;35354;51.296;16.924;2023-04-16T11:33:47;99725.47;;;15.01;64.04
49459;BME280;35354;51.296;16.924;2023-04-16T11:36:13;99719.53;;;15.11;64.85
49459;BME280;35354;51.296;16.924;2023-04-16T11:38:38;99700.25;;;14.71;64.53
49459;BME280;35354;51.296;16.924;2023-04-16T11:41:07;99699.88;;;15.04;64.54
49459;BME280;35354;51.296;16.924;2023-04-16T11:43:32;99699.38;;;15.12;63.45
49459;BME280;35354;51.296;16.924;2023-04-16T11:45:59;99724.22;;;15.60;64.07
49459;BME280;35354;51.296;16.924;2023-04-16T11:48:44;99715.03;;;15.67;62.57
49459;BME280;35354;51.296;16.924;2023-04-16T11:51:10;99726.41;;;15.81;62.64
49459;BME280;35354;51.296;16.924;2023-04-16T11:56:12;99713.56;;;15.49;61.00
49459;BME280;35354;51.296;16.924;2023-04-16T11:58:37;99729.19;;;15.38;61.29
49459;BME280;35354;51.296;16.924;2023-04-16T12:01:02;99718.03;;;15.21;61.27
49459;BME280;35354;51.296;16.924;2023-04-16T12:03:41;99724.75;;;15.26;60.46
49459;BME280;35354;51.296;16.924;2023-04-16T12:06:10;99729.69;;;15.30;60.97
49459;BME280;35354;51.296;16.924;2023-04-16T12:08:35;99712.72;;;15.09;61.10
49459;BME280;35354;51.296;16.924;2023-04-16T12:11:00;99718.88;;;15.08;60.93
49459;BME280;35354;51.296;16.924;2023-04-16T12:13:26;99716.56;;;15.03;61.43
49459;BME280;35354;51.296;16.924;2023-04-16T12:15:55;99716.00;;;14.98;61.15
49459;BME280;35354;51.296;16.924;2023-04-16T12:18:23;99707.97;;;14.87;61.59
49459;BME280;35354;51.296;16.924;2023-04-16T12:20:50;99725.78;;;14.96;61.19
49459;BME280;35354;51.296;16.924;2023-04-16T12:23:23;99720.19;;;14.88;61.67
49459;BME280;35354;51.296;16.924;2023-04-16T12:25:49;99725.66;;;14.97;62.34
49459;BME280;35354;51.296;16.924;2023-04-16T12:28:26;99715.78;;;14.88;62.14
49459;BME280;35354;51.296;16.924;2023-04-16T12:30:52;99700.75;;;14.90;61.58
49459;BME280;35354;51.296;16.924;2023-04-16T12:33:18;99696.34;;;15.05;61.14
49459;BME280;35354;51.296;16.924;2023-04-16T12:35:44;99693.41;;;15.10;61.08
49459;BME280;35354;51.296;16.924;2023-04-16T12:38:09;99706.72;;;15.34;61.36
49459;BME280;35354;51.296;16.924;2023-04-16T12:40:36;99719.31;;;15.41;60.78
49459;BME280;35354;51.296;16.924;2023-04-16T12:43:01;99700.91;;;15.29;61.33
49459;BME280;35354;51.296;16.924;2023-04-16T12:45:27;99692.91;;;14.90;61.44
49459;BME280;35354;51.296;16.924;2023-04-16T12:47:53;99710.38;;;15.04;62.38
49459;BME280;35354;51.296;16.924;2023-04-16T12:50:19;99696.72;;;14.99;61.51
49459;BME280;35354;51.296;16.924;2023-04-16T12:52:45;99701.22;;;14.97;62.01
49459;BME280;35354;51.296;16.924;2023-04-16T12:55:11;99699.78;;;15.06;62.09
49459;BME280;35354;51.296;16.924;2023-04-16T12:57:36;99700.75;;;15.05;62.19